Time;durP1;ratioP1;P1;durP2;ratioP2;P2;SDS_P1;SDS_P2;PMS_P1;PMS_P2;Temp;Humidity;BMP_temperature;BMP_pressure;BME280_temperature;BME280_humidity;BME280_pressure;Samples;Min_cycle;Max_cycle;Signal;HPM_P1;HPM_P2
2022/08/07 00:01:57;;;;;;;;;3.50;3.50;;;;;21.79;25.85;101906.97;5008855;28;45214;-64
2022/08/07 00:04:22;;;;;;;;;3.50;3.50;;;;;21.77;26.12;101903.47;5001238;28;45210;-63
2022/08/07 00:06:47;;;;;;;;;3.00;3.00;;;;;21.74;26.16;101902.66;5001347;28;45305;-60
2022/08/07 00:09:13;;;;;;;;;4.00;3.00;;;;;21.71;26.23;101905.50;5000741;28;45328;-60
2022/08/07 00:11:38;;;;;;;;;4.00;4.00;;;;;21.69;26.45;101901.13;5001182;28;45313;-60
2022/08/07 00:14:03;;;;;;;;;3.25;3.25;;;;;21.66;25.86;101899.47;5016508;28;47004;-60
2022/08/07 00:16:29;;;;;;;;;4.00;3.75;;;;;21.63;26.30;101894.22;5001107;28;45377;-60
2022/08/07 00:18:54;;;;;;;;;4.00;4.00;;;;;21.57;26.25;101890.03;5001569;28;45355;-60
2022/08/07 00:21:20;;;;;;;;;3.00;3.00;;;;;21.57;26.34;101898.06;5001168;28;45467;-60
2022/08/07 00:23:45;;;;;;;;;3.00;3.00;;;;;21.54;26.45;101886.56;5016212;28;46107;-60
2022/08/07 00:26:11;;;;;;;;;3.00;3.00;;;;;21.52;26.47;101894.69;5000860;28;45313;-60
2022/08/07 00:28:37;;;;;;;;;4.00;3.00;;;;;21.48;26.60;101889.50;5001166;28;45337;-60
2022/08/07 00:31:06;;;;;;;;;3.75;3.00;;;;;21.49;26.14;101894.78;5000849;28;45463;-60
2022/08/07 00:33:33;;;;;;;;;5.00;5.00;;;;;21.47;26.77;101898.47;4999525;28;47187;-60
2022/08/07 00:35:58;;;;;;;;;5.00;3.00;;;;;21.43;26.41;101887.91;5000974;28;45361;-60
2022/08/07 00:38:24;;;;;;;;;4.25;2.50;;;;;21.43;26.26;101898.59;5000789;28;45389;-60
2022/08/07 00:40:49;;;;;;;;;2.00;2.00;;;;;21.40;26.61;101893.38;4999424;28;45519;-60
2022/08/07 00:43:15;;;;;;;;;4.25;3.50;;;;;21.39;26.86;101885.41;5000963;28;46111;-60
2022/08/07 00:45:41;;;;;;;;;3.50;3.25;;;;;21.38;26.54;101886.34;5000887;28;45309;-60
2022/08/07 00:48:08;;;;;;;;;4.00;4.00;;;;;21.35;26.95;101879.31;5000939;28;45452;-60
2022/08/07 00:50:34;;;;;;;;;3.00;3.00;;;;;21.32;26.68;101884.81;5008201;28;45261;-60
2022/08/07 00:52:59;;;;;;;;;5.00;3.00;;;;;21.30;26.80;101885.81;5012313;28;46305;-60
2022/08/07 00:55:25;;;;;;;;;3.25;3.25;;;;;21.26;26.90;101883.25;5000622;28;45217;-60
2022/08/07 00:57:50;;;;;;;;;3.25;3.25;;;;;21.23;27.17;101875.38;5000976;28;45516;-60
2022/08/07 01:00:16;;;;;;;;;2.50;2.50;;;;;21.21;27.23;101874.56;5000455;28;45527;-60
2022/08/07 01:02:41;;;;;;;;;3.00;3.00;;;;;21.17;27.01;101874.72;4997814;28;45316;-60
2022/08/07 01:05:08;;;;;;;;;2.25;2.00;;;;;21.12;26.84;101869.59;5020409;28;45163;-60
2022/08/07 01:07:34;;;;;;;;;4.25;3.00;;;;;21.11;26.77;101865.19;5020598;28;45312;-60
2022/08/07 01:10:00;;;;;;;;;1.00;1.00;;;;;21.07;27.15;101864.44;5019966;28;45301;-60
2022/08/07 01:12:25;;;;;;;;;1.25;0.00;;;;;21.04;27.21;101869.03;5020021;28;45403;-60
2022/08/07 01:14:51;;;;;;;;;5.75;3.25;;;;;21.00;27.36;101870.94;5020228;28;45334;-62
2022/08/07 01:17:16;;;;;;;;;2.50;2.50;;;;;20.94;26.99;101853.38;5020395;28;45312;-63
2022/08/07 01:19:42;;;;;;;;;3.25;3.00;;;;;20.95;27.40;101859.56;5020107;28;45241;-64
2022/08/07 01:22:08;;;;;;;;;3.00;2.00;;;;;20.92;27.05;101857.03;5018945;28;45249;-64
2022/08/07 01:24:34;;;;;;;;;4.00;2.00;;;;;20.89;27.21;101855.38;5019679;28;45505;-64
2022/08/07 01:27:00;;;;;;;;;2.75;2.75;;;;;20.87;27.49;101856.38;5020358;28;45301;-64
2022/08/07 01:29:27;;;;;;;;;2.00;2.00;;;;;20.84;26.98;101856.47;5019902;28;45439;-64
2022/08/07 01:31:53;;;;;;;;;4.25;2.50;;;;;20.81;27.19;101851.25;5019794;28;46221;-64
2022/08/07 01:34:19;;;;;;;;;4.00;3.75;;;;;20.74;27.54;101851.50;5019740;28;45327;-64
2022/08/07 01:36:48;;;;;;;;;3.50;3.50;;;;;20.75;27.59;101845.22;5020276;28;45318;-63
2022/08/07 01:39:14;;;;;;;;;4.00;3.00;;;;;20.65;28.01;101843.78;5019654;28;45419;-64
2022/08/07 01:41:42;;;;;;;;;4.25;4.00;;;;;20.69;27.44;101858.78;5018244;28;47172;-63
2022/08/07 01:44:08;;;;;;;;;5.00;3.00;;;;;20.66;27.59;101860.72;5019695;28;45186;-63
2022/08/07 01:46:35;;;;;;;;;3.50;2.50;;;;;20.49;27.53;101835.53;5019930;28;45301;-63
2022/08/07 01:49:01;;;;;;;;;4.25;3.00;;;;;20.60;27.90;101848.44;5019807;28;45558;-63
2022/08/07 01:51:27;;;;;;;;;4.00;4.00;;;;;20.57;27.47;101853.94;5019576;28;46427;-63
2022/08/07 01:53:56;;;;;;;;;2.75;2.75;;;;;20.54;28.15;101862.94;5019563;28;45266;-63
2022/08/07 01:56:53;;;;;;;;;3.00;3.00;;;;;20.48;27.84;101851.59;4998317;28;45222;-62
2022/08/07 01:59:31;;;;;;;;;4.00;4.00;;;;;20.47;28.11;101856.06;4998399;28;45428;-59
2022/08/07 02:02:05;;;;;;;;;4.00;3.50;;;;;20.46;27.69;101852.53;5007677;28;45447;-59
2022/08/07 02:04:57;;;;;;;;;3.25;3.25;;;;;20.44;28.22;101856.22;4999877;28;45329;-60
2022/08/07 02:07:24;;;;;;;;;3.00;3.00;;;;;20.41;28.15;101856.31;4999756;28;45301;-61
2022/08/07 02:09:53;;;;;;;;;4.00;4.00;;;;;20.39;28.29;101855.47;4999466;28;45495;-63
2022/08/07 02:12:20;;;;;;;;;3.75;3.75;;;;;20.33;28.41;101845.91;4999409;28;46575;-63
2022/08/07 02:14:49;;;;;;;;;3.00;3.00;;;;;20.34;28.20;101854.78;4997858;28;45788;-64
2022/08/07 02:17:17;;;;;;;;;3.25;3.00;;;;;20.32;28.45;101859.34;4999710;28;45286;-64
2022/08/07 02:19:46;;;;;;;;;4.00;3.25;;;;;20.28;28.43;101863.91;4999506;28;45600;-63
2022/08/07 02:22:13;;;;;;;;;3.00;3.00;;;;;20.24;28.51;101862.28;4999351;28;46540;-64
2022/08/07 02:24:42;;;;;;;;;4.00;3.25;;;;;20.22;28.49;101861.47;4999177;28;45484;-63
2022/08/07 02:27:08;;;;;;;;;3.75;3.00;;;;;20.19;28.86;101866.91;5014298;28;45360;-64
2022/08/07 02:29:35;;;;;;;;;1.75;1.75;;;;;20.19;28.30;101864.22;4999410;28;45169;-64
2022/08/07 02:32:02;;;;;;;;;5.25;4.00;;;;;20.17;28.79;101855.44;5014771;28;47271;-64
2022/08/07 02:34:29;;;;;;;;;2.75;2.75;;;;;20.11;28.82;101852.06;5002862;28;45439;-64
2022/08/07 02:36:57;;;;;;;;;2.50;1.75;;;;;20.09;28.29;101853.91;5018332;28;45438;-64
2022/08/07 02:39:24;;;;;;;;;3.75;3.75;;;;;20.12;28.50;101852.94;5002525;28;45325;-64
2022/08/07 02:41:51;;;;;;;;;5.25;5.25;;;;;20.11;28.88;101848.50;5002576;28;46103;-64
2022/08/07 02:44:18;;;;;;;;;3.00;3.00;;;;;20.04;28.96;101839.00;5001334;28;45308;-64
2022/08/07 02:46:46;;;;;;;;;4.75;4.75;;;;;20.08;28.59;101845.97;5002785;28;45339;-63
2022/08/07 02:49:12;;;;;;;;;4.75;2.75;;;;;20.07;29.13;101852.22;5002492;28;45511;-64
2022/08/07 02:51:39;;;;;;;;;4.00;3.00;;;;;20.01;29.31;101845.31;5020509;28;46320;-64
2022/08/07 02:54:09;;;;;;;;;4.00;3.00;;;;;19.99;28.83;101847.19;5005360;28;45321;-64
2022/08/07 02:56:38;;;;;;;;;4.25;4.25;;;;;19.98;28.71;101845.44;5002692;28;45420;-63
2022/08/07 02:59:08;;;;;;;;;3.00;3.00;;;;;19.95;28.95;101840.22;5002304;28;45228;-63
2022/08/07 03:01:37;;;;;;;;;4.50;4.00;;;;;19.92;29.40;101843.88;5008101;28;45302;-63
2022/08/07 03:04:05;;;;;;;;;3.50;3.50;;;;;19.89;29.32;101838.63;5003341;28;45266;-63
2022/08/07 03:06:32;;;;;;;;;2.00;2.00;;;;;19.87;29.16;101840.47;5002506;28;45247;-64
2022/08/07 03:08:57;;;;;;;;;4.75;2.50;;;;;19.70;29.19;101814.38;5002000;28;45321;-64
2022/08/07 03:11:23;;;;;;;;;4.00;4.00;;;;;19.80;29.28;101836.28;5002060;28;46357;-64
2022/08/07 03:13:48;;;;;;;;;4.25;4.25;;;;;19.77;29.43;101845.25;5000781;28;45346;-64
2022/08/07 03:16:15;;;;;;;;;5.00;4.00;;;;;19.73;29.68;101842.75;5002290;28;45303;-64
2022/08/07 03:18:41;;;;;;;;;3.25;3.25;;;;;19.65;29.22;101830.53;5002086;28;45348;-64
2022/08/07 03:21:07;;;;;;;;;3.75;2.50;;;;;19.68;29.53;101837.56;5001957;28;46998;-63
2022/08/07 03:23:36;;;;;;;;;3.50;3.50;;;;;19.63;29.53;101840.41;5000473;28;45335;-60
2022/08/07 03:26:02;;;;;;;;;4.25;3.25;;;;;19.62;29.80;101841.31;5002188;28;45396;-61
2022/08/07 03:28:29;;;;;;;;;3.00;3.00;;;;;19.61;29.62;101846.72;5000782;28;45638;-63
2022/08/07 03:31:17;;;;;;;;;6.00;6.00;;;;;19.58;29.72;101842.34;5001585;28;45262;-64
2022/08/07 03:33:43;;;;;;;;;3.00;3.00;;;;;19.57;30.13;101840.63;5010705;28;45417;-64
2022/08/07 03:36:13;;;;;;;;;3.50;3.50;;;;;19.54;30.07;101839.84;5005894;28;45323;-64
2022/08/07 03:38:40;;;;;;;;;3.00;3.00;;;;;19.49;29.91;101840.84;5001740;28;45334;-64
2022/08/07 03:41:06;;;;;;;;;4.25;3.75;;;;;19.51;29.61;101839.94;5001517;28;46466;-64
2022/08/07 03:43:32;;;;;;;;;3.25;3.25;;;;;19.45;30.17;101836.56;5016062;28;45478;-64
2022/08/07 03:45:59;;;;;;;;;2.00;2.00;;;;;19.46;30.00;101846.31;5001509;28;45487;-64
2022/08/07 03:48:27;;;;;;;;;3.25;3.00;;;;;19.40;30.19;101843.84;5016476;28;45480;-64
2022/08/07 03:50:55;;;;;;;;;2.50;2.50;;;;;19.42;29.95;101851.78;5012313;28;46377;-64
2022/08/07 03:53:20;;;;;;;;;3.00;3.00;;;;;19.39;30.24;101847.44;5010793;28;45400;-63
2022/08/07 03:55:48;;;;;;;;;2.00;2.00;;;;;19.35;30.29;101835.13;5001768;28;45250;-63
2022/08/07 03:58:14;;;;;;;;;2.50;2.50;;;;;19.35;30.33;101845.78;5000354;28;45534;-62
2022/08/07 04:00:41;;;;;;;;;3.25;3.25;;;;;19.35;30.26;101844.94;5001397;28;45380;-63
2022/08/07 04:03:07;;;;;;;;;4.00;2.75;;;;;19.31;29.88;101844.16;5009167;28;45219;-62
2022/08/07 04:05:35;;;;;;;;;4.00;2.75;;;;;19.30;30.42;101842.41;5001304;28;45295;-62
2022/08/07 04:08:02;;;;;;;;;4.00;3.00;;;;;19.28;30.19;101850.47;5001493;28;45254;-62
2022/08/07 04:10:28;;;;;;;;;4.00;4.00;;;;;19.27;30.40;101848.72;5000999;28;45302;-63
2022/08/07 04:12:54;;;;;;;;;4.75;4.00;;;;;19.21;30.24;101842.75;5001314;28;45199;-64
2022/08/07 04:15:20;;;;;;;;;4.00;4.00;;;;;19.20;30.53;101841.84;5001388;28;45246;-64
2022/08/07 04:17:46;;;;;;;;;3.50;3.50;;;;;19.18;30.47;101846.34;5001263;28;45405;-63
2022/08/07 04:20:12;;;;;;;;;3.25;3.25;;;;;19.19;30.79;101844.56;5001040;28;46014;-62
2022/08/07 04:22:40;;;;;;;;;3.50;3.50;;;;;19.18;30.75;101851.66;5001282;28;45391;-61
2022/08/07 04:25:06;;;;;;;;;4.25;3.00;;;;;19.15;30.67;101847.31;5001074;28;45466;-63
2022/08/07 04:27:32;;;;;;;;;6.25;4.00;;;;;19.14;30.69;101853.59;5001108;28;45735;-63
2022/08/07 04:29:57;;;;;;;;;4.00;4.00;;;;;19.10;30.62;101837.75;5000856;28;45321;-64
2022/08/07 04:32:23;;;;;;;;;3.00;2.00;;;;;19.07;30.61;101840.50;5000839;28;45171;-64
2022/08/07 04:34:50;;;;;;;;;4.50;3.75;;;;;19.09;31.02;101844.84;5001117;28;45247;-64
2022/08/07 04:37:16;;;;;;;;;3.75;3.00;;;;;19.06;31.22;101844.97;5001139;28;45297;-64
2022/08/07 04:39:41;;;;;;;;;3.00;3.00;;;;;19.03;31.10;101847.75;5000436;28;45266;-64
2022/08/07 04:42:06;;;;;;;;;5.00;5.00;;;;;19.05;30.82;101843.22;4999794;28;45262;-64
2022/08/07 04:44:33;;;;;;;;;4.00;4.00;;;;;19.02;31.08;101847.75;5000957;28;45292;-65
2022/08/07 04:47:07;;;;;;;;;4.50;4.50;;;;;19.02;31.24;101853.97;5000799;28;45527;-64
2022/08/07 04:49:41;;;;;;;;;4.75;4.00;;;;;19.00;31.14;101855.81;5001544;28;45234;-64
2022/08/07 04:52:43;;;;;;;;;3.50;3.25;;;;;18.97;31.36;101858.59;5019851;28;45362;-63
2022/08/07 04:55:21;;;;;;;;;4.00;3.00;;;;;18.94;31.11;101856.91;4999196;28;45221;-64
2022/08/07 04:58:02;;;;;;;;;2.50;2.50;;;;;18.93;31.30;101864.91;5000720;28;45162;-64
2022/08/07 05:00:42;;;;;;;;;3.00;2.75;;;;;18.90;31.83;101860.56;5000375;28;45304;-65
2022/08/07 05:03:22;;;;;;;;;4.75;3.50;;;;;18.90;31.66;101868.53;5008141;28;45167;-64
2022/08/07 05:06:04;;;;;;;;;3.00;3.00;;;;;18.88;31.66;101864.16;5000560;28;45257;-64
2022/08/07 05:08:42;;;;;;;;;2.75;2.75;;;;;18.88;31.75;101873.03;4999068;28;45411;-63
2022/08/07 05:11:15;;;;;;;;;3.50;3.25;;;;;18.88;31.67;101869.47;5000557;28;45435;-63
2022/08/07 05:14:12;;;;;;;;;4.50;4.50;;;;;18.88;31.87;101874.81;5000208;28;45378;-63
2022/08/07 05:16:40;;;;;;;;;3.00;3.00;;;;;18.87;31.61;101870.38;4972806;28;45512;-62
2022/08/07 05:19:15;;;;;;;;;4.25;4.25;;;;;18.84;31.91;101869.59;5000397;28;45295;-60
2022/08/07 05:21:48;;;;;;;;;4.25;4.00;;;;;18.84;31.87;101872.25;5000113;28;45297;-60
2022/08/07 05:24:16;;;;;;;;;6.25;4.00;;;;;18.84;31.96;101880.25;4999609;28;45343;-60
2022/08/07 05:26:43;;;;;;;;;3.75;3.75;;;;;18.82;32.00;101882.06;5000249;28;45360;-60
2022/08/07 05:29:10;;;;;;;;;3.75;3.25;;;;;18.82;32.12;101882.06;5000245;28;45350;-60
2022/08/07 05:31:39;;;;;;;;;4.50;3.00;;;;;18.83;32.23;101885.63;4999782;28;46303;-60
2022/08/07 05:34:08;;;;;;;;;4.50;4.50;;;;;18.83;32.27;101891.81;5000025;28;45175;-60
2022/08/07 05:36:35;;;;;;;;;6.25;6.25;;;;;18.82;32.26;101889.19;5000107;28;45370;-60
2022/08/07 05:39:01;;;;;;;;;3.00;3.00;;;;;18.82;32.49;101883.88;4999836;28;45443;-60
2022/08/07 05:41:28;;;;;;;;;3.25;3.25;;;;;18.81;32.06;101890.09;4999437;28;45330;-60
2022/08/07 05:43:55;;;;;;;;;7.25;4.50;;;;;18.81;32.42;101890.09;5000008;28;45421;-60
2022/08/07 05:46:21;;;;;;;;;4.00;3.00;;;;;18.82;32.33;101891.84;5000006;28;45342;-60
2022/08/07 05:48:49;;;;;;;;;3.00;3.00;;;;;18.81;32.32;101888.31;4999967;28;45288;-60
2022/08/07 05:51:15;;;;;;;;;3.75;3.75;;;;;18.81;32.66;101896.28;5014192;28;46348;-60
2022/08/07 05:53:41;;;;;;;;;3.75;3.75;;;;;18.80;32.40;101897.25;5005991;28;45306;-60
2022/08/07 05:56:08;;;;;;;;;4.00;3.50;;;;;18.84;32.64;101895.31;5000042;28;45313;-60
2022/08/07 05:58:36;;;;;;;;;4.00;3.00;;;;;18.83;32.52;101893.59;4999875;28;45345;-60
2022/08/07 06:01:02;;;;;;;;;5.75;2.75;;;;;18.84;32.26;101896.22;5001172;28;46269;-61
2022/08/07 06:03:30;;;;;;;;;4.00;4.00;;;;;18.86;32.41;101901.50;5005538;28;45179;-60
2022/08/07 06:05:56;;;;;;;;;3.00;3.00;;;;;18.87;32.47;101900.56;5015110;28;45382;-61
2022/08/07 06:08:22;;;;;;;;;4.25;3.00;;;;;18.89;32.56;101900.53;5002130;28;45285;-60
2022/08/07 06:10:49;;;;;;;;;4.00;4.00;;;;;18.90;32.76;101902.28;5003049;28;45324;-61
2022/08/07 06:13:15;;;;;;;;;5.00;3.75;;;;;18.91;32.64;101904.91;5002966;28;45173;-60
2022/08/07 06:15:41;;;;;;;;;5.00;4.00;;;;;18.94;32.70;101907.50;5003286;28;45512;-61
2022/08/07 06:18:07;;;;;;;;;2.50;2.25;;;;;18.96;32.90;101905.63;5002900;28;45227;-60
2022/08/07 06:20:36;;;;;;;;;4.00;4.00;;;;;18.99;32.68;101905.56;5002913;28;45491;-61
2022/08/07 06:23:04;;;;;;;;;4.25;3.25;;;;;18.99;33.02;101905.56;5002814;28;45514;-61
2022/08/07 06:25:30;;;;;;;;;5.75;4.00;;;;;19.00;32.97;101899.31;5003047;28;45251;-61
2022/08/07 06:28:06;;;;;;;;;3.25;2.25;;;;;19.06;32.60;101908.03;5003137;28;45279;-60
2022/08/07 06:30:33;;;;;;;;;3.00;3.00;;;;;19.07;32.98;101905.31;5002821;28;45328;-60
2022/08/07 06:33:00;;;;;;;;;3.00;3.00;;;;;19.11;32.78;101898.09;5002418;28;45284;-61
2022/08/07 06:35:25;;;;;;;;;5.00;5.00;;;;;19.14;32.94;101905.97;5003047;28;45348;-61
2022/08/07 06:37:50;;;;;;;;;3.25;3.25;;;;;19.15;32.94;101902.41;5001041;28;45468;-61
2022/08/07 06:40:16;;;;;;;;;4.00;3.00;;;;;19.17;32.70;101893.44;5017961;28;48174;-61
2022/08/07 06:42:47;;;;;;;;;4.00;3.00;;;;;19.21;32.85;101890.69;5002604;28;45313;-60
2022/08/07 06:45:16;;;;;;;;;4.25;2.00;;;;;19.22;33.26;101887.09;5002952;28;45329;-61
2022/08/07 06:47:42;;;;;;;;;3.00;3.00;;;;;19.28;33.00;101887.78;5002383;28;45461;-61
2022/08/07 06:50:08;;;;;;;;;5.00;4.25;;;;;19.31;32.94;101892.13;5008450;28;46592;-60
2022/08/07 06:52:36;;;;;;;;;2.75;2.75;;;;;19.34;33.08;101889.34;5016943;28;45407;-60
2022/08/07 06:55:09;;;;;;;;;5.00;3.00;;;;;19.37;33.16;101891.03;5002765;28;45247;-61
2022/08/07 06:57:37;;;;;;;;;5.25;4.25;;;;;19.42;33.15;101891.75;5002419;28;45238;-60
2022/08/07 07:00:03;;;;;;;;;3.00;3.00;;;;;19.45;33.06;101887.19;5002279;28;46138;-61
2022/08/07 07:02:30;;;;;;;;;2.25;2.25;;;;;19.49;32.95;101890.63;5009875;28;45487;-61
2022/08/07 07:04:56;;;;;;;;;1.00;0.50;;;;;19.53;32.91;101891.41;5002825;28;45335;-61
2022/08/07 07:07:22;;;;;;;;;4.75;4.00;;;;;19.56;33.09;101897.53;5002204;28;45364;-61
2022/08/07 07:09:48;;;;;;;;;4.25;4.25;;;;;19.60;33.18;101896.47;5002009;28;46393;-60
2022/08/07 07:12:29;;;;;;;;;2.75;2.75;;;;;19.64;33.01;101900.78;5002271;28;45362;-60
2022/08/07 07:15:23;;;;;;;;;4.50;4.00;;;;;19.71;32.83;101905.91;5002418;28;45289;-60
2022/08/07 07:17:58;;;;;;;;;2.50;2.50;;;;;19.75;32.92;101903.09;4999741;28;45448;-59
2022/08/07 07:20:38;;;;;;;;;2.00;2.00;;;;;19.76;33.18;101890.63;5017257;28;46481;-60
2022/08/07 07:23:06;;;;;;;;;4.25;3.75;;;;;19.84;32.99;101907.28;5002005;28;45397;-60
2022/08/07 07:25:33;;;;;;;;;2.25;2.25;;;;;19.89;32.95;101901.78;5002200;28;45251;-59
2022/08/07 07:28:11;;;;;;;;;2.75;2.75;;;;;19.93;33.03;101900.75;5002105;28;45285;-59
2022/08/07 07:30:41;;;;;;;;;3.75;3.00;;;;;19.96;33.26;101901.50;5001728;28;46342;-59
2022/08/07 07:33:12;;;;;;;;;3.00;3.00;;;;;20.04;33.07;101900.38;5017035;28;45286;-59
2022/08/07 07:35:42;;;;;;;;;2.00;1.00;;;;;20.09;32.92;101893.94;5002240;28;45329;-59
2022/08/07 07:38:08;;;;;;;;;2.00;2.00;;;;;20.14;32.83;101897.28;5000371;28;45579;-60
2022/08/07 07:40:36;;;;;;;;;4.25;3.75;;;;;20.20;32.57;101896.22;5001907;28;46272;-60
2022/08/07 07:43:04;;;;;;;;;1.75;1.75;;;;;20.24;33.20;101888.97;5001588;28;45324;-60
2022/08/07 07:45:31;;;;;;;;;2.75;2.00;;;;;20.30;33.12;101886.94;5000584;28;45257;-60
2022/08/07 07:47:59;;;;;;;;;2.00;2.00;;;;;20.36;32.35;101888.50;5001486;28;45261;-60
2022/08/07 07:50:26;;;;;;;;;5.00;2.00;;;;;20.41;32.66;101885.66;5009813;28;45586;-60
2022/08/07 07:52:53;;;;;;;;;2.75;2.75;;;;;20.48;32.85;101892.53;5001440;28;45325;-60
2022/08/07 07:55:20;;;;;;;;;2.50;2.50;;;;;20.54;32.61;101894.06;5001712;28;45300;-60
2022/08/07 07:57:49;;;;;;;;;2.00;2.00;;;;;20.58;32.62;101882.38;5001540;28;45217;-60
2022/08/07 08:00:17;;;;;;;;;4.00;3.00;;;;;20.67;32.93;101881.16;5001410;28;45518;-60
2022/08/07 08:02:46;;;;;;;;;4.00;2.75;;;;;20.71;32.92;101875.63;5008745;28;45415;-60
2022/08/07 08:05:15;;;;;;;;;1.75;1.00;;;;;20.79;32.29;101872.66;5001438;28;45214;-60
2022/08/07 08:07:42;;;;;;;;;2.75;2.75;;;;;20.85;32.60;101882.25;5001316;28;45325;-60
2022/08/07 08:10:09;;;;;;;;;4.75;1.75;;;;;20.89;32.64;101878.53;5001074;28;46124;-60
2022/08/07 08:12:36;;;;;;;;;1.25;1.25;;;;;20.99;32.71;101882.56;5001352;28;46094;-60
2022/08/07 08:15:01;;;;;;;;;2.00;2.00;;;;;21.05;32.77;101874.31;5001384;28;45452;-60
2022/08/07 08:17:28;;;;;;;;;2.25;2.25;;;;;21.11;32.05;101871.38;5001544;28;45258;-60
2022/08/07 08:20:03;;;;;;;;;2.75;2.00;;;;;21.19;32.25;101878.22;5001149;28;45413;-60
2022/08/07 08:28:04;;;;;;;;;16.25;15.00;;;;;21.42;32.41;101874.59;5001096;28;45386;-60
2022/08/07 08:30:33;;;;;;;;;2.00;2.00;;;;;21.49;32.21;101868.03;5015525;28;47200;-60
2022/08/07 08:33:02;;;;;;;;;3.00;3.00;;;;;21.57;31.70;101862.41;5000892;28;45723;-60
2022/08/07 08:35:30;;;;;;;;;1.00;1.00;;;;;21.65;32.25;101864.78;4999832;28;45298;-60
2022/08/07 08:37:58;;;;;;;;;1.00;1.00;;;;;21.71;32.21;101862.69;5000760;28;45272;-60
2022/08/07 08:40:37;;;;;;;;;2.00;1.00;;;;;21.79;32.15;101870.38;5000811;28;45328;-60
2022/08/07 08:43:09;;;;;;;;;2.00;2.00;;;;;21.83;31.67;101855.91;5000872;28;45417;-60
2022/08/07 08:45:43;;;;;;;;;3.25;3.25;;;;;21.94;31.83;101860.81;5000860;28;45431;-60
2022/08/07 08:48:31;;;;;;;;;2.00;2.00;;;;;21.99;31.51;101855.25;5000828;28;45343;-61
2022/08/07 08:51:09;;;;;;;;;1.50;1.50;;;;;22.10;31.33;101860.13;5011755;28;46439;-60
2022/08/07 08:53:59;;;;;;;;;1.00;1.00;;;;;22.15;31.61;101852.75;5007788;28;45376;-61
2022/08/07 08:56:36;;;;;;;;;3.00;2.00;;;;;22.28;31.47;101864.63;4998726;28;55983;-60
2022/08/07 08:59:08;;;;;;;;;3.00;1.75;;;;;22.35;31.63;101855.38;5000498;28;45358;-60
2022/08/07 09:01:45;;;;;;;;;2.25;2.25;;;;;22.45;31.18;101865.69;5006353;28;45448;-61
2022/08/07 09:04:21;;;;;;;;;3.25;3.25;;;;;22.52;31.25;101859.97;5000421;28;45339;-61
2022/08/07 09:07:05;;;;;;;;;3.00;2.00;;;;;22.60;31.29;101854.25;5000788;28;45319;-61
2022/08/07 09:09:53;;;;;;;;;0.00;0.00;;;;;22.68;30.90;101856.59;5000269;28;45532;-60
2022/08/07 09:12:39;;;;;;;;;4.00;3.00;;;;;22.78;31.12;101860.56;4999018;28;47112;-61
2022/08/07 09:15:16;;;;;;;;;2.00;2.00;;;;;22.85;31.04;101858.44;5000475;28;45250;-61
2022/08/07 09:18:08;;;;;;;;;1.50;1.50;;;;;22.92;31.02;101859.88;5000371;28;45282;-61
2022/08/07 09:20:53;;;;;;;;;1.00;1.00;;;;;23.00;30.86;101857.69;5006464;28;45573;-60
2022/08/07 09:23:30;;;;;;;;;2.00;0.75;;;;;23.11;30.16;101859.00;5019755;28;46174;-61
2022/08/07 09:26:39;;;;;;;;;9.00;8.00;;;;;23.21;30.39;101854.94;5019795;28;45348;-61
2022/08/07 09:29:49;;;;;;;;;10.50;8.50;;;;;23.30;30.80;101845.56;5018594;28;45286;-61
2022/08/07 09:32:31;;;;;;;;;1.75;1.75;;;;;23.42;30.42;101857.47;5019662;28;45296;-61
2022/08/07 09:35:33;;;;;;;;;2.00;2.00;;;;;23.53;30.50;101861.34;5019665;28;45448;-61
2022/08/07 09:38:10;;;;;;;;;3.75;3.00;;;;;23.62;30.45;101854.66;5019370;28;45403;-61
2022/08/07 09:41:21;;;;;;;;;2.00;2.00;;;;;23.74;30.22;101854.94;5019916;28;45326;-61
2022/08/07 09:44:11;;;;;;;;;4.25;2.25;;;;;23.86;29.86;101848.91;5019425;28;45398;-60
2022/08/07 09:47:13;;;;;;;;;4.00;2.00;;;;;23.97;30.24;101840.34;5018033;28;45610;-60
2022/08/07 09:50:12;;;;;;;;;2.25;2.25;;;;;24.08;29.94;101851.34;5019726;28;45383;-61
2022/08/07 09:52:51;;;;;;;;;2.00;2.00;;;;;24.20;29.95;101843.59;5013770;28;45305;-60
2022/08/07 09:55:28;;;;;;;;;1.75;1.75;;;;;24.30;29.99;101843.00;4999783;28;45542;-61
2022/08/07 09:58:23;;;;;;;;;5.00;3.00;;;;;24.41;29.32;101837.03;4999877;28;45477;-61
2022/08/07 10:01:01;;;;;;;;;4.00;3.75;;;;;24.57;29.88;101838.88;4999342;28;45374;-61
2022/08/07 10:03:49;;;;;;;;;2.25;1.00;;;;;24.72;29.14;101847.94;4999771;28;45439;-61
2022/08/07 10:06:41;;;;;;;;;1.50;1.50;;;;;24.81;29.52;101824.06;4999607;28;45404;-61
2022/08/07 10:09:18;;;;;;;;;2.00;2.00;;;;;24.98;29.31;101838.34;4999519;28;46164;-61
2022/08/07 10:12:21;;;;;;;;;1.00;1.00;;;;;25.12;29.34;101826.81;4999442;28;46059;-61
2022/08/07 10:15:14;;;;;;;;;3.50;3.50;;;;;25.25;29.33;101817.03;4998099;28;45381;-61
2022/08/07 10:18:07;;;;;;;;;1.25;1.25;;;;;25.41;28.83;101822.41;4999401;28;45582;-61
2022/08/07 10:20:32;;;;;;;;;2.00;2.00;;;;;25.54;29.18;101817.16;4999382;28;47148;-61
2022/08/07 10:23:07;;;;;;;;;4.00;3.00;;;;;25.68;28.93;101810.06;4999320;28;45249;-61
2022/08/07 10:25:44;;;;;;;;;3.75;3.75;;;;;25.80;28.21;101807.47;4999743;28;45400;-61
2022/08/07 10:28:47;;;;;;;;;2.00;2.00;;;;;25.97;28.51;101805.56;5014589;28;45451;-60
2022/08/07 10:31:40;;;;;;;;;2.25;2.25;;;;;26.16;28.00;101812.50;4999091;28;46294;-62
2022/08/07 10:34:36;;;;;;;;;2.25;2.25;;;;;26.32;27.97;101817.78;4999354;28;45462;-60
2022/08/07 10:37:24;;;;;;;;;4.50;4.50;;;;;26.49;28.36;101800.53;4999448;28;45425;-60
2022/08/07 10:40:03;;;;;;;;;20.50;18.50;;;;;26.74;28.41;101802.50;4999411;28;45507;-60
2022/08/07 10:42:38;;;;;;;;;5.00;5.00;;;;;27.05;28.66;101800.44;4999019;28;46412;-59
2022/08/07 10:45:20;;;;;;;;;2.50;2.50;;;;;27.43;28.08;101804.22;4999248;28;45187;-60
2022/08/07 10:48:21;;;;;;;;;3.00;3.00;;;;;28.01;28.69;101808.22;4998973;28;45496;-60
2022/08/07 10:50:55;;;;;;;;;3.00;3.00;;;;;28.63;28.75;101795.66;5009340;28;45540;-62
2022/08/07 10:53:35;;;;;;;;;3.50;3.50;;;;;29.28;28.69;101792.63;5008893;28;46654;-63
2022/08/07 10:56:31;;;;;;;;;2.00;2.00;;;;;29.92;28.50;101794.00;5002397;28;45321;-63
2022/08/07 10:59:25;;;;;;;;;3.00;3.00;;;;;30.64;28.44;101793.56;5001416;28;45262;-62
2022/08/07 11:02:17;;;;;;;;;2.50;2.50;;;;;31.27;27.92;101786.50;5025343;28;45312;-62
2022/08/07 11:05:00;;;;;;;;;2.75;2.75;;;;;31.90;28.12;101785.59;5002408;28;46127;-60
2022/08/07 11:07:39;;;;;;;;;3.00;3.00;;;;;32.46;27.42;101791.53;5002086;28;45322;-59
2022/08/07 11:10:16;;;;;;;;;3.50;2.25;;;;;33.08;27.25;101786.69;5002259;28;45296;-62
2022/08/07 11:12:55;;;;;;;;;2.00;2.00;;;;;33.69;26.90;101792.75;5001095;28;45382;-62
2022/08/07 11:15:24;;;;;;;;;2.50;1.75;;;;;34.22;26.40;101783.06;5017259;28;47507;-63
2022/08/07 11:17:55;;;;;;;;;2.00;1.25;;;;;34.69;26.04;101778.47;5000320;28;45608;-63
2022/08/07 11:20:25;;;;;;;;;1.50;1.25;;;;;35.06;25.60;101767.38;5002266;28;45258;-63
2022/08/07 11:23:21;;;;;;;;;1.25;1.00;;;;;35.45;25.69;101761.53;5002051;28;45257;-62
2022/08/07 11:26:16;;;;;;;;;0.00;0.00;;;;;35.93;25.22;101763.84;5010749;28;47402;-62
2022/08/07 11:28:48;;;;;;;;;1.75;1.75;;;;;36.31;25.10;101764.28;5003687;28;45409;-61
2022/08/07 11:31:42;;;;;;;;;1.00;1.00;;;;;36.69;24.29;101762.00;5021905;28;45235;-60
2022/08/07 11:34:19;;;;;;;;;2.25;2.25;;;;;37.08;24.44;101761.34;5021665;28;45388;-63
2022/08/07 11:36:57;;;;;;;;;1.00;1.00;;;;;37.42;24.40;101756.66;5021593;28;45458;-62
2022/08/07 11:39:35;;;;;;;;;2.50;2.25;;;;;37.73;24.20;101755.88;5020019;28;45397;-62
2022/08/07 11:42:39;;;;;;;;;2.00;2.00;;;;;38.07;23.22;101757.47;5021783;28;45450;-63
2022/08/07 11:45:41;;;;;;;;;1.00;1.00;;;;;38.41;23.76;101745.28;5005643;28;45354;-63
2022/08/07 11:48:29;;;;;;;;;1.25;1.25;;;;;38.74;22.98;101747.78;5021546;28;45309;-62
2022/08/07 11:51:23;;;;;;;;;0.50;0.50;;;;;39.00;22.31;101739.13;5021233;28;45308;-61
2022/08/07 11:54:12;;;;;;;;;2.75;2.75;;;;;39.21;22.20;101740.34;5006794;28;45371;-60
2022/08/07 11:57:11;;;;;;;;;3.00;3.00;;;;;39.40;21.84;101747.16;4999512;28;69309;-60